Language: 


Des rapports , des résumés tant et plus, au choix de chacun....


Données Historiques de Météogheer
Journalier Rapport pour Nil La, TWC- Unitée:  Impériale    Métrique   Les deux

Warning: A non-numeric value encountered in /datas/vol1/w4a123858/var/www/legheer.be/meteo3/wu/WU-History.php on line 1400

Warning: mktime() expects parameter 4 to be integer, string given in /datas/vol1/w4a123858/var/www/legheer.be/meteo3/wu/WU-History.php on line 1401

Warning: A non-numeric value encountered in /datas/vol1/w4a123858/var/www/legheer.be/meteo3/wu/WU-History.php on line 1400

Warning: mktime() expects parameter 4 to be integer, string given in /datas/vol1/w4a123858/var/www/legheer.be/meteo3/wu/WU-History.php on line 1401
Suivant Jour »
Journalier Hebdomadaire Mensuel Annuel Sur mesure
  Max: Min: Moyenne:
Température: 79 °F 53.4 °F 63.9 °F
Point de rosée: 57.2 °F 48.2 °F 52.2 °F
Humidité: 84% 42% 68%
Vent: 11.2mph 0mph 3.9mph
Rafales: 14.1mph - -
Vent- - SSE
Pression: 30.1 in 29.9 in -
Pluie: 0 in    
Historical Graphs
 
 
Données tabulaires pour Nil La, TWC-
Heure Température Point de rosée Pression Vent Vent Rafales Humidité Pluie Taux (Horaire) Conditions
00:09 53.8 °F 48.2 °F 30.1 in North 3.6 mph 6.3 mph 80% 0 in
00:19 53.8 °F 48.2 °F 30.1 in North 3.6 mph 5.4 mph 79% 0 in
00:24 53.6 °F 48.2 °F 30.1 in North 2.9 mph 5.6 mph 79% 0 in
00:29 53.6 °F 48.2 °F 30.1 in Calm   5.6 mph 80% 0 in
00:39 53.6 °F 48.2 °F 30.1 in North 5.6 mph 5.6 mph 80% 0 in
00:49 54 °F 48.2 °F 30.1 in NNE 6.5 mph 7.4 mph 81% 0 in
00:54 53.8 °F 48.2 °F 30 in North 4 mph 7.2 mph 81% 0 in
00:59 54 °F 48.2 °F 30 in NNE 4.3 mph 6.9 mph 81% 0 in
01:09 54 °F 48.2 °F 30.1 in NNE 5.6 mph 5.8 mph 81% 0 in
01:14 53.8 °F 48.2 °F 30.1 in NNE 2.5 mph 6 mph 81% 0 in
01:20 53.8 °F 48.2 °F 30.1 in NNW 3.8 mph 6 mph 81% 0 in
01:29 53.8 °F 48.2 °F 30.1 in North 3.1 mph 5.6 mph 82% 0 in
01:34 53.6 °F 48.2 °F 30.1 in North 5.8 mph 5.8 mph 82% 0 in
01:39 53.6 °F 48.2 °F 30 in North 3.1 mph 5.8 mph 82% 0 in
01:49 53.4 °F 48.2 °F 30 in North 2 mph 4.9 mph 82% 0 in
01:54 53.4 °F 48.2 °F 30 in NNE 2.7 mph 5.4 mph 82% 0 in
01:59 53.4 °F 48.2 °F 30 in NNE 3.6 mph 5.4 mph 82% 0 in
02:09 53.6 °F 48.2 °F 30 in Calm   4.7 mph 82% 0 in
02:14 53.6 °F 48.2 °F 30 in Calm   4.3 mph 82% 0 in
02:19 53.6 °F 48.2 °F 30 in North 2.7 mph 4.3 mph 82% 0 in
02:29 53.8 °F 48.2 °F 30 in Calm   2.9 mph 82% 0 in
02:34 53.8 °F 48.2 °F 30 in Calm   3.6 mph 82% 0 in
02:40 53.8 °F 48.2 °F 30 in Calm   3.6 mph 83% 0 in
02:49 54 °F 48.2 °F 30 in North 3.6 mph 5.4 mph 83% 0 in
02:54 54 °F 48.2 °F 30 in North 1.3 mph 6.3 mph 83% 0 in
02:59 54.1 °F 50 °F 30 in Calm   6.3 mph 83% 0 in
03:09 54.1 °F 50 °F 30 in North 4.7 mph 5.8 mph 83% 0 in
03:14 54.3 °F 50 °F 30 in NNE 3.8 mph 5.8 mph 83% 0 in
03:20 54.3 °F 50 °F 30 in North 3.1 mph 6.5 mph 83% 0 in
03:29 54.3 °F 50 °F 30 in North 4 mph 5.6 mph 83% 0 in
03:34 54.3 °F 50 °F 30 in NNW 2.5 mph 4.9 mph 84% 0 in
03:39 54.3 °F 50 °F 30 in North 3.6 mph 5.4 mph 83% 0 in
03:49 54.3 °F 50 °F 30 in North 2.7 mph 4.3 mph 83% 0 in
03:59 54.3 °F 50 °F 30 in North 6.3 mph 6.5 mph 83% 0 in
04:04 54.3 °F 50 °F 30 in North 4.3 mph 6.3 mph 84% 0 in
04:10 54.5 °F 50 °F 30 in Calm   6 mph 84% 0 in
04:19 54.7 °F 50 °F 30 in North 2.9 mph 6.3 mph 84% 0 in
04:29 54.7 °F 50 °F 30 in NE 4 mph 6.3 mph 84% 0 in
04:39 54.9 °F 50 °F 30 in North 0.9 mph 5.8 mph 84% 0 in
04:49 54.9 °F 50 °F 30 in North 3.6 mph 5.6 mph 83% 0 in
05:04 54.9 °F 50 °F 30 in North 5.4 mph 5.6 mph 83% 0 in
05:09 55 °F 51.8 °F 30 in NNW 1.6 mph 6 mph 84% 0 in
05:19 55.2 °F 51.8 °F 30 in NNW 1.3 mph 5.4 mph 84% 0 in
05:29 55.4 °F 50 °F 30 in Calm   4.3 mph 83% 0 in
05:34 55.4 °F 50 °F 30 in Calm   3.8 mph 83% 0 in
05:39 55.4 °F 50 °F 30 in Calm   2.7 mph 83% 0 in
05:49 55.4 °F 50 °F 30 in North 2.5 mph 2.5 mph 83% 0 in
05:59 55.4 °F 50 °F 30 in Calm   4.7 mph 83% 0 in
06:09 55.2 °F 50 °F 30 in NNE 3.1 mph 4.3 mph 83% 0 in
06:14 55.4 °F 50 °F 30 in North 2.2 mph 4.3 mph 83% 0 in
06:19 55.4 °F 50 °F 30 in Calm   4.3 mph 83% 0 in
06:29 55.4 °F 50 °F 30 in Calm   2.9 mph 83% 0 in
06:39 55.6 °F 50 °F 30 in Calm   2 mph 83% 0 in
06:44 55.6 °F 50 °F 30 in North 1.1 mph 1.1 mph 83% 0 in
06:49 55.8 °F 51.8 °F 30 in Calm   1.6 mph 83% 0 in
06:59 55.8 °F 51.8 °F 30 in Calm     83% 0 in
07:09 55.9 °F 51.8 °F 30 in Calm     83% 0 in
07:19 56.1 °F 51.8 °F 30 in Calm     83% 0 in
07:24 56.3 °F 51.8 °F 30 in Calm     83% 0 in
07:29 56.3 °F 51.8 °F 30 in Calm     83% 0 in
07:39 56.3 °F 51.8 °F 30 in NNE 1.6 mph 2.9 mph 82% 0 in
07:44 56.3 °F 51.8 °F 30 in Calm   2 mph 82% 0 in
07:49 56.3 °F 51.8 °F 30 in Calm   1.6 mph 82% 0 in
07:59 56.5 °F 51.8 °F 30 in Calm     83% 0 in
08:04 56.5 °F 51.8 °F 30 in Calm     83% 0 in
08:09 56.7 °F 51.8 °F 29.9 in Calm     83% 0 in
08:19 57 °F 53.6 °F 29.9 in Calm     84% 0 in
08:24 57.2 °F 51.8 °F 30 in Calm     83% 0 in
08:29 57.4 °F 51.8 °F 30 in Calm     83% 0 in
08:39 57.9 °F 53.6 °F 30 in NNW 3.1 mph 3.1 mph 83% 0 in
08:44 58.3 °F 53.6 °F 30 in Calm   3.4 mph 83% 0 in
08:49 58.8 °F 53.6 °F 30 in Calm   3.4 mph 82% 0 in
08:59 60.3 °F 55.4 °F 30 in NNE 4.3 mph 5.4 mph 81% 0 in
09:04 61.2 °F 55.4 °F 30 in NNE 5.8 mph 5.8 mph 81% 0 in
09:09 61.9 °F 55.4 °F 30 in Calm   6 mph 80% 0 in
09:19 63.9 °F 57.2 °F 30 in NNE 3.4 mph 6.3 mph 78% 0 in
09:29 65.1 °F 57.2 °F 30 in Calm   5.8 mph 74% 0 in
09:34 66 °F 57.2 °F 30 in NNW 3.1 mph 5.8 mph 73% 0 in
09:39 66.9 °F 57.2 °F 30 in North 4 mph 6 mph 70% 0 in
09:49 68 °F 57.2 °F 30 in North 3.8 mph 6.5 mph 67% 0 in
09:54 68.5 °F 55.4 °F 29.9 in NNE 5.6 mph 7.8 mph 64% 0 in
09:59 69.3 °F 55.4 °F 29.9 in NNE 5.6 mph 8.1 mph 61% 0 in
10:09 70 °F 55.4 °F 29.9 in NNE 5.8 mph 9.8 mph 58% 0 in
10:14 70.2 °F 55.4 °F 29.9 in NE 5.8 mph 9.8 mph 59% 0 in
10:19 70.7 °F 55.4 °F 29.9 in NNE 8.5 mph 8.5 mph 56% 0 in
10:29 69.1 °F 53.6 °F 29.9 in NE 3.8 mph 9.8 mph 56% 0 in
10:39 69.8 °F 53.6 °F 29.9 in North 6.5 mph 7.4 mph 56% 0 in
10:44 70.2 °F 55.4 °F 29.9 in NE 4.9 mph 7.4 mph 57% 0 in
10:49 69.4 °F 53.6 °F 29.9 in NNE 6.5 mph 8.5 mph 56% 0 in
10:59 69.3 °F 53.6 °F 29.9 in NNE 6 mph 8.5 mph 56% 0 in
11:04 69.1 °F 53.6 °F 29.9 in NE 7.8 mph 8.5 mph 56% 0 in
11:09 69.8 °F 53.6 °F 29.9 in NNE 5.4 mph 8.7 mph 56% 0 in
11:19 71.4 °F 55.4 °F 29.9 in ENE 2.7 mph 8.1 mph 56% 0 in
11:24 71.1 °F 55.4 °F 29.9 in NNE 6.5 mph 8.1 mph 56% 0 in
11:29 70.5 °F 53.6 °F 29.9 in NE 4 mph 7.4 mph 55% 0 in
11:39 72 °F 55.4 °F 29.9 in NNE 6.7 mph 9.4 mph 55% 0 in
11:44 72.5 °F 55.4 °F 29.9 in East 3.8 mph 7.8 mph 54% 0 in
11:49 71.6 °F 53.6 °F 29.9 in NE 2.9 mph 8.5 mph 53% 0 in
11:59 70.7 °F 53.6 °F 29.9 in NNE 8.1 mph 9.8 mph 53% 0 in
12:04 72.3 °F 55.4 °F 29.9 in East 3.4 mph 10.3 mph 53% 0 in
12:09 73 °F 55.4 °F 29.9 in SSE 2 mph 10.3 mph 52% 0 in
12:19 73 °F 55.4 °F 29.9 in NNE 6.5 mph 8.5 mph 52% 0 in
12:24 72 °F 53.6 °F 29.9 in NE 4.9 mph 12.3 mph 51% 0 in
12:29 72 °F 53.6 °F 29.9 in ENE 8.7 mph 12.3 mph 52% 0 in
12:39 72.1 °F 51.8 °F 29.9 in NE 8.7 mph 12.8 mph 49% 0 in
12:44 72 °F 51.8 °F 29.9 in NE 8.5 mph 12.8 mph 49% 0 in
12:49 72 °F 53.6 °F 29.9 in NE 10.1 mph 10.5 mph 50% 0 in
12:59 73.8 °F 53.6 °F 29.9 in NNE 7.4 mph 10.1 mph 49% 0 in
13:04 74.8 °F 53.6 °F 29.9 in East 5.6 mph 10.3 mph 48% 0 in
13:09 74.1 °F 53.6 °F 29.9 in NE 6.5 mph 10.3 mph 47% 0 in
13:19 72.7 °F 53.6 °F 29.9 in East 9.8 mph 9.8 mph 49% 0 in
13:29 72.7 °F 53.6 °F 29.9 in East 8.1 mph 10.7 mph 50% 0 in
13:39 73.9 °F 55.4 °F 29.9 in NNE 8.7 mph 9.6 mph 51% 0 in
13:44 75.2 °F 55.4 °F 29.9 in NE 1.3 mph 8.7 mph 49% 0 in
13:49 75.2 °F 55.4 °F 29.9 in NNW 8.5 mph 8.9 mph 48% 0 in
13:59 75 °F 53.6 °F 29.9 in NE 9.8 mph 10.7 mph 47% 0 in
14:04 75.6 °F 55.4 °F 29.9 in North 8.1 mph 10.7 mph 48% 0 in
14:09 75.4 °F 53.6 °F 29.9 in NNE 8.1 mph 11 mph 47% 0 in
14:19 75.4 °F 53.6 °F 29.9 in North 11.2 mph 12.5 mph 47% 0 in
14:29 75.2 °F 55.4 °F 29.9 in NNE 5.6 mph 14.1 mph 48% 0 in
14:39 75.9 °F 55.4 °F 29.9 in NNE 5.6 mph 9.6 mph 48% 0 in
14:44 75.7 °F 55.4 °F 29.9 in NNE 8.7 mph 9.8 mph 48% 0 in
14:49 75.7 °F 55.4 °F 29.9 in NE 7.4 mph 13.2 mph 48% 0 in
14:59 76.8 °F 55.4 °F 29.9 in NNE 3.4 mph 8.5 mph 48% 0 in
15:04 77.4 °F 55.4 °F 29.9 in North 8.1 mph 8.1 mph 47% 0 in
15:09 77.4 °F 53.6 °F 29.9 in North 6.5 mph 10.3 mph 43% 0 in
15:19 77.4 °F 53.6 °F 29.9 in East 7.2 mph 10.5 mph 43% 0 in
15:24 77.4 °F 53.6 °F 29.9 in NNE 8.5 mph 12.1 mph 42% 0 in
15:29 76.5 °F 51.8 °F 29.9 in NE 6 mph 12.1 mph 43% 0 in
15:39 75.9 °F 51.8 °F 29.9 in North 5.8 mph 10.3 mph 43% 0 in
15:44 75.6 °F 53.6 °F 29.9 in NNE 2.9 mph 10.3 mph 44% 0 in
15:49 77 °F 53.6 °F 29.9 in NNE 5.8 mph 7.8 mph 44% 0 in
15:59 75.9 °F 51.8 °F 29.9 in NE 4.3 mph 10.3 mph 43% 0 in
16:04 74.8 °F 51.8 °F 29.9 in NE 5.6 mph 10.3 mph 44% 0 in
16:09 76.1 °F 53.6 °F 29.9 in NE 5.8 mph 8.7 mph 45% 0 in
16:19 77.2 °F 53.6 °F 29.9 in NNE 8.1 mph 8.9 mph 44% 0 in
16:24 77.7 °F 55.4 °F 29.9 in NNE 8.7 mph 10.5 mph 44% 0 in
16:29 77.5 °F 53.6 °F 29.9 in NNW 4 mph 10.5 mph 43% 0 in
16:39 78.4 °F 55.4 °F 29.9 in ENE 3.8 mph 8.7 mph 44% 0 in
16:44 78.3 °F 53.6 °F 29.9 in NE 3.4 mph 8.7 mph 43% 0 in
16:49 78.4 °F 55.4 °F 29.9 in NNE 4.9 mph 8.7 mph 44% 0 in
16:59 78.4 °F 53.6 °F 29.9 in ENE 7.6 mph 9.6 mph 43% 0 in
17:04 79 °F 55.4 °F 29.9 in NE 0.9 mph 9.6 mph 44% 0 in
Données Historique de Météo Turbie

Mise a jour : 21/05/2018 17:02:12
Généré par Cumulus 1.9.4 (1099)